Time;durP1;ratioP1;P1;durP2;ratioP2;P2;SDS_P1;SDS_P2;PMS_P1;PMS_P2;Temp;Humidity;BMP_temperature;BMP_pressure;BME280_temperature;BME280_humidity;BME280_pressure;Samples;Min_cycle;Max_cycle;Signal;HPM_P1;HPM_P2
2023/02/25 00:00:54;;;;;;;29.13;21.53;;;;;;;5.77;100.00;100801.47;2072767;28;20335;-64
2023/02/25 00:01:55;;;;;;;35.03;25.60;;;;;;;5.47;100.00;100745.34;2073073;28;20219;-64
2023/02/25 00:02:57;;;;;;;34.85;27.13;;;;;;;5.44;100.00;100768.91;2073521;28;20731;-64
2023/02/25 00:03:58;;;;;;;35.08;27.02;;;;;;;5.53;100.00;100790.53;2073043;28;20706;-64
2023/02/25 00:05:05;;;;;;;34.83;26.83;;;;;;;5.61;100.00;100790.13;2073334;28;20589;-64
2023/02/25 00:06:08;;;;;;;37.45;27.73;;;;;;;5.60;100.00;100793.25;2072704;28;20173;-64
2023/02/25 00:07:09;;;;;;;37.15;27.40;;;;;;;5.56;100.00;100782.25;2073371;28;20187;-64
2023/02/25 00:08:09;;;;;;;33.03;25.70;;;;;;;5.51;100.00;100779.91;2071751;28;20177;-64
2023/02/25 00:09:10;;;;;;;30.67;25.37;;;;;;;5.55;100.00;100780.66;2073534;28;20710;-64
2023/02/25 00:10:11;;;;;;;30.33;24.87;;;;;;;5.54;100.00;100781.84;2072987;28;20612;-64
2023/02/25 00:11:15;;;;;;;32.47;24.25;;;;;;;5.55;100.00;100785.41;2073479;28;20574;-64
2023/02/25 00:12:15;;;;;;;32.00;25.55;;;;;;;5.55;100.00;100782.66;2072927;28;20223;-64
2023/02/25 00:13:15;;;;;;;32.60;25.10;;;;;;;5.53;100.00;100783.03;2073249;28;20727;-64
2023/02/25 00:14:16;;;;;;;30.97;22.73;;;;;;;5.52;100.00;100784.22;2071763;28;20678;-64
2023/02/25 00:15:16;;;;;;;28.90;23.47;;;;;;;4.91;100.00;100682.19;2073231;28;20219;-64
2023/02/25 00:16:18;;;;;;;28.33;22.53;;;;;;;5.52;100.00;100789.72;2071251;28;20928;-64
2023/02/25 00:17:19;;;;;;;27.83;23.63;;;;;;;5.53;100.00;100776.78;2065785;28;20651;-64
2023/02/25 00:18:19;;;;;;;31.80;24.40;;;;;;;5.59;100.00;100784.22;2071927;28;20638;-64
2023/02/25 00:19:21;;;;;;;30.10;23.33;;;;;;;4.77;100.00;100655.53;2065565;28;20197;-64
2023/02/25 00:20:22;;;;;;;30.42;24.00;;;;;;;5.53;100.00;100765.78;2071930;28;20400;-64
2023/02/25 00:21:23;;;;;;;30.57;23.57;;;;;;;5.60;100.00;100766.53;2073255;28;20197;-64
2023/02/25 00:22:25;;;;;;;31.00;23.92;;;;;;;5.50;100.00;100761.06;2072911;28;20185;-64
2023/02/25 00:23:25;;;;;;;28.67;23.15;;;;;;;5.63;100.00;100767.69;2073306;28;20291;-64
2023/02/25 00:24:27;;;;;;;38.83;26.40;;;;;;;5.21;100.00;100697.09;2072242;28;20197;-64
2023/02/25 00:25:27;;;;;;;40.13;28.35;;;;;;;5.63;100.00;100756.72;2073116;28;20189;-64
2023/02/25 00:26:28;;;;;;;36.10;27.97;;;;;;;5.65;100.00;100766.13;2072670;28;20187;-64
2023/02/25 00:27:28;;;;;;;31.80;24.97;;;;;;;5.65;100.00;100751.63;2072173;28;20707;-64
2023/02/25 00:28:31;;;;;;;37.87;25.67;;;;;;;5.14;100.00;100679.84;2071446;28;20193;-64
2023/02/25 00:29:32;;;;;;;41.42;28.35;;;;;;;5.64;100.00;100758.31;2073107;28;20184;-64
2023/02/25 00:30:33;;;;;;;39.87;27.90;;;;;;;5.65;100.00;100752.38;2072783;28;20665;-64
2023/02/25 00:31:34;;;;;;;35.72;26.88;;;;;;;5.66;100.00;100750.44;2073285;28;20187;-64
2023/02/25 00:32:34;;;;;;;32.50;25.33;;;;;;;5.58;100.00;100737.88;2072707;28;20189;-64
2023/02/25 00:33:36;;;;;;;34.30;25.27;;;;;;;5.67;100.00;100752.00;2073271;28;20180;-64
2023/02/25 00:34:36;;;;;;;34.33;25.20;;;;;;;4.86;100.00;100631.22;2069174;28;20204;-64
2023/02/25 00:35:40;;;;;;;30.60;25.37;;;;;;;4.46;100.00;100567.72;2079824;28;20214;-64
2023/02/25 00:36:40;;;;;;;30.08;24.85;;;;;;;5.64;100.00;100748.06;2073365;28;20246;-64
2023/02/25 00:37:41;;;;;;;35.77;26.50;;;;;;;4.60;100.00;100582.22;2077076;28;20212;-64
2023/02/25 00:38:41;;;;;;;35.00;25.30;;;;;;;5.62;100.00;100753.19;2072156;28;20624;-64
2023/02/25 00:39:42;;;;;;;32.53;26.07;;;;;;;5.14;100.00;100688.84;2070831;28;20273;-64
2023/02/25 00:40:42;;;;;;;33.30;25.07;;;;;;;5.38;100.00;100723.78;2074249;28;20196;-64
2023/02/25 00:41:43;;;;;;;34.00;25.37;;;;;;;5.57;100.00;100748.09;2066211;28;20190;-64
2023/02/25 00:42:43;;;;;;;36.57;25.87;;;;;;;5.54;100.00;100748.88;2076251;28;20231;-64
2023/02/25 00:43:52;;;;;;;40.10;27.37;;;;;;;5.34;100.00;100731.22;2065261;28;20727;-64
2023/02/25 00:44:53;;;;;;;37.53;27.17;;;;;;;5.51;100.00;100740.63;2074612;28;20192;-64
2023/02/25 00:45:53;;;;;;;39.13;27.40;;;;;;;5.47;100.00;100735.16;2065897;28;20185;-64
2023/02/25 00:46:53;;;;;;;36.53;27.03;;;;;;;5.46;100.00;100736.34;2076576;28;20217;-64
2023/02/25 00:47:54;;;;;;;35.93;24.97;;;;;;;4.93;100.00;100655.91;2075307;28;20199;-64
2023/02/25 00:48:55;;;;;;;34.37;26.17;;;;;;;5.39;100.00;100719.84;2076153;28;20207;-63
2023/02/25 00:49:55;;;;;;;35.80;26.17;;;;;;;5.41;100.00;100722.19;2078715;28;20731;-64
2023/02/25 00:50:55;;;;;;;34.30;25.73;;;;;;;5.31;100.00;100714.75;2074027;28;20192;-64
2023/02/25 00:51:56;;;;;;;38.77;27.07;;;;;;;5.37;100.00;100716.72;2080910;28;20219;-64
2023/02/25 00:52:57;;;;;;;40.17;27.30;;;;;;;5.35;100.00;100716.34;2072935;28;20183;-64
2023/02/25 00:53:58;;;;;;;35.07;25.97;;;;;;;5.36;100.00;100715.16;2073077;28;20448;-64
2023/02/25 00:54:58;;;;;;;38.13;26.03;;;;;;;5.26;100.00;100718.69;2066548;28;20189;-64
2023/02/25 00:56:01;;;;;;;40.70;26.23;;;;;;;5.29;100.00;100711.63;2074776;28;20211;-64
2023/02/25 00:57:02;;;;;;;39.63;26.23;;;;;;;5.30;100.00;100707.69;2070087;28;20212;-64
2023/02/25 00:58:03;;;;;;;34.43;24.97;;;;;;;5.30;100.00;100705.75;2066058;28;20216;-64
2023/02/25 00:59:03;;;;;;;31.97;22.53;;;;;;;5.26;100.00;100706.91;2071991;28;20232;-64
2023/02/25 01:00:09;;;;;;;31.87;23.33;;;;;;;5.21;100.00;100707.31;2072682;28;20257;-64
2023/02/25 01:01:26;;;;;;;29.98;21.63;;;;;;;5.16;100.00;100702.22;2072675;28;20719;-64
2023/02/25 01:02:27;;;;;;;30.95;21.90;;;;;;;5.17;100.00;100698.28;2072515;28;20214;-64
2023/02/25 01:03:27;;;;;;;36.40;23.15;;;;;;;5.15;100.00;100695.94;2072822;28;20181;-64
2023/02/25 01:04:28;;;;;;;39.63;23.17;;;;;;;5.09;100.00;100689.28;2071214;28;20212;-64
2023/02/25 01:05:28;;;;;;;38.30;22.07;;;;;;;5.08;100.00;100684.19;2064736;28;20206;-64
2023/02/25 01:06:31;;;;;;;31.30;21.17;;;;;;;5.12;100.00;100701.44;2071131;28;20196;-64
2023/02/25 01:07:32;;;;;;;32.47;20.63;;;;;;;5.14;100.00;100699.84;2072370;28;20662;-64
2023/02/25 01:08:32;;;;;;;30.43;21.00;;;;;;;5.13;100.00;100708.50;2072089;28;20569;-64
2023/02/25 01:09:33;;;;;;;34.20;20.00;;;;;;;5.04;100.00;100694.38;2072823;28;20204;-64
2023/02/25 01:10:33;;;;;;;35.27;21.07;;;;;;;5.13;100.00;100712.00;2072501;28;20286;-64
2023/02/25 01:11:35;;;;;;;34.17;24.97;;;;;;;4.29;100.00;100576.72;2072762;28;20180;-64
2023/02/25 01:12:36;;;;;;;31.13;21.20;;;;;;;5.08;100.00;100679.44;2072364;28;20247;-64
2023/02/25 01:13:36;;;;;;;32.50;22.13;;;;;;;5.17;100.00;100699.06;2073116;28;20542;-64
2023/02/25 01:14:37;;;;;;;30.43;21.40;;;;;;;3.99;100.00;100508.53;2072640;28;20208;-64
2023/02/25 01:15:38;;;;;;;28.13;21.13;;;;;;;5.15;100.00;100693.19;2072528;28;20192;-64
2023/02/25 01:16:39;;;;;;;25.23;20.07;;;;;;;5.16;100.00;100702.22;2072425;28;20200;-64
2023/02/25 01:17:39;;;;;;;26.03;20.57;;;;;;;5.17;100.00;100690.81;2071524;28;20223;-64
2023/02/25 01:18:40;;;;;;;27.37;20.43;;;;;;;4.70;100.00;100641.81;2072337;28;20199;-64
2023/02/25 01:19:40;;;;;;;22.23;17.07;;;;;;;4.81;100.00;100641.81;2072900;28;20215;-64
2023/02/25 01:20:41;;;;;;;22.40;17.07;;;;;;;4.28;100.00;100550.47;2072445;28;20680;-64
2023/02/25 01:21:45;;;;;;;21.33;16.73;;;;;;;5.15;100.00;100687.69;2072571;28;20279;-63
2023/02/25 01:22:46;;;;;;;20.80;17.50;;;;;;;5.15;100.00;100679.47;2072691;28;20187;-63
2023/02/25 01:23:47;;;;;;;21.07;16.70;;;;;;;5.18;100.00;100686.13;2072645;28;20192;-63
2023/02/25 01:24:48;;;;;;;24.45;18.08;;;;;;;3.79;100.00;100477.19;2072582;28;20195;-64
2023/02/25 01:25:48;;;;;;;22.37;18.27;;;;;;;5.20;100.00;100690.06;2072437;28;20200;-64
2023/02/25 01:26:52;;;;;;;23.60;17.37;;;;;;;5.18;100.00;100695.13;2072588;28;20257;-64
2023/02/25 01:27:56;;;;;;;26.23;17.58;;;;;;;5.20;100.00;100681.00;2071180;28;20199;-64
2023/02/25 01:28:57;;;;;;;21.60;16.98;;;;;;;5.18;100.00;100717.13;2072761;28;20584;-64
2023/02/25 01:29:57;;;;;;;23.13;18.50;;;;;;;4.83;100.00;100653.19;2072360;28;20184;-64
2023/02/25 01:30:58;;;;;;;22.93;18.93;;;;;;;5.15;100.00;100700.63;2072521;28;20178;-64
2023/02/25 01:32:00;;;;;;;30.77;21.73;;;;;;;5.15;100.00;100704.19;2071644;28;20238;-64
2023/02/25 01:33:01;;;;;;;26.27;21.05;;;;;;;5.16;100.00;100704.94;2072227;28;20690;-64
2023/02/25 01:34:03;;;;;;;30.17;24.30;;;;;;;5.22;100.00;100698.69;2072484;28;20290;-64
2023/02/25 01:35:04;;;;;;;43.08;28.65;;;;;;;5.13;100.00;100684.53;2066153;28;20203;-64
2023/02/25 01:36:05;;;;;;;38.72;28.67;;;;;;;5.19;100.00;100698.69;2069726;28;20225;-64
2023/02/25 01:37:06;;;;;;;38.95;28.98;;;;;;;5.19;100.00;100693.19;2072798;28;20192;-64
2023/02/25 01:38:06;;;;;;;42.33;29.80;;;;;;;5.24;100.00;100699.06;2070912;28;20231;-64
2023/02/25 01:39:07;;;;;;;32.40;24.97;;;;;;;5.13;100.00;100676.31;2072635;28;20181;-64
2023/02/25 01:40:12;;;;;;;32.13;22.63;;;;;;;5.24;100.00;100681.81;2072214;28;20222;-64
2023/02/25 01:41:12;;;;;;;28.35;21.77;;;;;;;5.24;100.00;100677.06;2072556;28;20191;-64
2023/02/25 01:42:16;;;;;;;24.73;19.73;;;;;;;4.74;100.00;100615.16;2072572;28;20203;-64
2023/02/25 01:43:17;;;;;;;24.73;19.40;;;;;;;5.29;100.00;100678.66;2064695;28;20577;-64
2023/02/25 01:44:21;;;;;;;23.10;19.92;;;;;;;5.28;100.00;100677.09;2071538;28;20219;-64
2023/02/25 01:45:26;;;;;;;27.08;20.15;;;;;;;4.33;100.00;100537.16;2072518;28;20206;-64
2023/02/25 01:46:28;;;;;;;25.75;19.23;;;;;;;5.27;100.00;100686.50;2072245;28;20179;-64
2023/02/25 01:47:34;;;;;;;27.45;18.55;;;;;;;5.28;100.00;100682.59;2072066;28;20656;-64
2023/02/25 01:48:39;;;;;;;26.55;21.25;;;;;;;5.25;100.00;100677.88;2071909;28;20187;-64
2023/02/25 01:49:44;;;;;;;31.55;24.95;;;;;;;5.23;100.00;100674.75;2072595;28;20286;-64
2023/02/25 01:50:51;;;;;;;30.45;23.70;;;;;;;5.14;100.00;100663.38;2072371;28;20213;-64
2023/02/25 01:51:54;;;;;;;28.35;22.08;;;;;;;5.22;100.00;100678.66;2071756;28;20286;-64
2023/02/25 01:52:57;;;;;;;27.42;21.55;;;;;;;4.89;100.00;100640.63;2071677;28;20226;-64
2023/02/25 01:54:01;;;;;;;31.85;22.10;;;;;;;5.23;100.00;100680.25;2072349;28;20177;-64
2023/02/25 01:55:02;;;;;;;29.15;22.17;;;;;;;5.26;100.00;100668.44;2071788;28;20195;-64
2023/02/25 01:56:04;;;;;;;34.83;23.73;;;;;;;5.27;100.00;100672.75;2071376;28;20186;-64
2023/02/25 01:57:09;;;;;;;33.20;23.52;;;;;;;5.23;100.00;100682.97;2072805;28;20188;-64
2023/02/25 01:58:11;;;;;;;32.55;22.77;;;;;;;5.23;100.00;100672.00;2071212;28;20214;-64
2023/02/25 01:59:12;;;;;;;31.38;22.40;;;;;;;5.22;100.00;100673.94;2072282;28;20439;-64
2023/02/25 02:00:16;;;;;;;34.17;23.20;;;;;;;5.24;100.00;100674.31;2072394;28;20287;-64
2023/02/25 02:01:21;;;;;;;32.75;23.48;;;;;;;4.84;100.00;100611.63;2072348;28;20567;-64
2023/02/25 02:02:24;;;;;;;34.42;23.92;;;;;;;5.19;100.00;100660.22;2072315;28;20556;-64
2023/02/25 02:03:29;;;;;;;35.08;24.17;;;;;;;5.21;100.00;100660.59;2072481;28;20194;-64
2023/02/25 02:04:30;;;;;;;34.90;23.15;;;;;;;5.19;100.00;100661.00;2072073;28;20707;-64
2023/02/25 02:05:52;;;;;;;34.28;24.52;;;;;;;5.13;100.00;100661.81;2072269;28;20227;-64
2023/02/25 02:06:54;;;;;;;31.75;24.05;;;;;;;5.11;100.00;100667.69;2072247;28;20666;-64
2023/02/25 02:07:54;;;;;;;34.72;24.23;;;;;;;5.12;100.00;100663.75;2071147;28;20819;-64
2023/02/25 02:08:55;;;;;;;30.23;23.53;;;;;;;5.09;100.00;100653.56;2072248;28;20229;-64
2023/02/25 02:09:55;;;;;;;30.53;23.07;;;;;;;5.06;100.00;100656.31;2072404;28;20627;-64
2023/02/25 02:10:56;;;;;;;30.97;24.00;;;;;;;5.07;100.00;100647.66;2072330;28;20233;-64
2023/02/25 02:12:00;;;;;;;27.83;22.83;;;;;;;5.06;100.00;100648.84;2072167;28;20270;-64
2023/02/25 02:13:00;;;;;;;31.05;22.90;;;;;;;5.00;100.00;100647.69;2071179;28;20617;-64
2023/02/25 02:14:03;;;;;;;28.17;22.60;;;;;;;4.98;100.00;100641.03;2072474;28;20343;-64
2023/02/25 02:15:08;;;;;;;25.95;21.50;;;;;;;4.77;100.00;100605.34;2072270;28;20187;-64
2023/02/25 02:16:29;;;;;;;30.02;24.08;;;;;;;4.96;100.00;100633.19;2071883;28;20195;-64
2023/02/25 02:17:42;;;;;;;29.20;22.90;;;;;;;4.87;100.00;100629.28;2071864;28;20188;-64
2023/02/25 02:18:50;;;;;;;29.52;22.63;;;;;;;4.72;100.00;100635.94;2072246;28;20204;-64
2023/02/25 02:20:06;;;;;;;28.88;22.75;;;;;;;4.68;100.00;100643.38;2072618;28;20601;-64
2023/02/25 02:21:29;;;;;;;32.42;23.85;;;;;;;4.70;100.00;100644.56;2071952;28;20590;-64
2023/02/25 02:22:34;;;;;;;32.97;24.25;;;;;;;4.69;100.00;100642.22;2066345;28;20258;-64
2023/02/25 02:23:53;;;;;;;42.72;30.42;;;;;;;4.70;100.00;100639.06;2072624;28;20164;-64
2023/02/25 02:25:23;;;;;;;37.67;27.10;;;;;;;4.38;100.00;100588.09;2072213;28;20188;-64
2023/02/25 02:26:44;;;;;;;31.60;24.20;;;;;;;4.71;100.00;100626.13;2071942;28;20218;-64
2023/02/25 02:27:47;;;;;;;38.15;25.25;;;;;;;4.65;100.00;100625.75;2071126;28;21060;-64
2023/02/25 02:29:47;;;;;;;39.90;27.17;;;;;;;4.59;100.00;100618.28;2072041;28;20194;-64
2023/02/25 02:31:24;;;;;;;39.13;26.42;;;;;;;4.56;100.00;100619.84;2067520;28;20731;-64
2023/02/25 02:32:45;;;;;;;39.70;27.92;;;;;;;4.54;100.00;100626.91;2067482;28;20713;-64
2023/02/25 02:34:05;;;;;;;39.92;26.73;;;;;;;4.49;100.00;100619.84;2064427;28;20188;-64
2023/02/25 02:35:17;;;;;;;43.50;28.67;;;;;;;4.51;100.00;100613.97;2070797;28;20459;-64
2023/02/25 02:36:26;;;;;;;44.03;31.05;;;;;;;4.50;100.00;100612.41;2071849;28;20641;-64
2023/02/25 02:37:46;;;;;;;44.35;29.33;;;;;;;4.52;100.00;100618.28;2071782;28;20175;-64
2023/02/25 02:39:18;;;;;;;40.92;27.85;;;;;;;4.50;100.00;100615.94;2072065;28;20182;-64
2023/02/25 02:40:37;;;;;;;45.00;29.25;;;;;;;4.53;100.00;100617.91;2072111;28;20569;-64
2023/02/25 02:41:49;;;;;;;42.25;29.60;;;;;;;4.37;100.00;100606.50;2072220;28;20182;-64
2023/02/25 02:43:18;;;;;;;48.72;31.73;;;;;;;4.30;100.00;100606.50;2072099;28;20625;-64
2023/02/25 02:44:57;;;;;;;49.63;33.42;;;;;;;4.36;100.00;100613.16;2072208;28;20195;-64
2023/02/25 02:46:08;;;;;;;50.33;31.30;;;;;;;4.42;100.00;100608.09;2069994;28;20182;-64
2023/02/25 02:47:22;;;;;;;47.00;31.75;;;;;;;4.35;100.00;100617.09;2072327;28;20195;-64
2023/02/25 02:48:54;;;;;;;53.40;32.15;;;;;;;4.31;100.00;100616.31;2071151;28;20641;-64
2023/02/25 02:50:04;;;;;;;54.78;32.03;;;;;;;4.22;100.00;100615.13;2065060;28;20178;-64
2023/02/25 02:51:10;;;;;;;45.65;30.88;;;;;;;4.25;100.00;100606.91;2071487;28;20269;-64
2023/02/25 02:52:17;;;;;;;43.90;30.30;;;;;;;4.30;100.00;100616.69;2071553;28;20170;-64
2023/02/25 02:53:31;;;;;;;42.75;29.48;;;;;;;3.83;100.00;100548.44;2071777;28;20190;-64
2023/02/25 02:54:36;;;;;;;48.67;32.28;;;;;;;4.30;100.00;100613.94;2071981;28;20227;-64
2023/02/25 02:55:51;;;;;;;50.42;34.92;;;;;;;4.06;100.00;100557.88;2072058;28;20655;-64
2023/02/25 02:56:54;;;;;;;53.15;35.20;;;;;;;4.08;100.00;100571.22;2072024;28;20274;-64
2023/02/25 02:58:08;;;;;;;60.90;40.47;;;;;;;3.39;100.00;100484.94;2069846;28;20224;-64
2023/02/25 02:59:25;;;;;;;61.30;39.97;;;;;;;4.25;100.00;100620.59;2069773;28;20312;-64
2023/02/25 03:00:33;;;;;;;53.53;36.38;;;;;;;4.24;100.00;100605.34;2072097;28;20211;-64
2023/02/25 03:01:45;;;;;;;51.67;35.08;;;;;;;4.18;100.00;100603.34;2066687;28;20182;-64
2023/02/25 03:02:58;;;;;;;50.72;35.83;;;;;;;3.26;100.00;100468.09;2071987;28;20226;-64
2023/02/25 03:04:04;;;;;;;53.85;34.78;;;;;;;3.97;100.00;100593.16;2072052;28;20268;-64
2023/02/25 03:05:09;;;;;;;51.00;35.55;;;;;;;4.04;100.00;100604.13;2071351;28;20198;-64
2023/02/25 03:06:15;;;;;;;49.47;34.25;;;;;;;3.53;100.00;100523.31;2071352;28;20266;-64
2023/02/25 03:07:17;;;;;;;46.72;32.17;;;;;;;4.08;100.00;100604.91;2069496;28;20202;-64
2023/02/25 03:08:25;;;;;;;42.70;32.17;;;;;;;4.09;100.00;100601.00;2064410;28;20185;-64
2023/02/25 03:09:34;;;;;;;39.53;26.55;;;;;;;4.10;100.00;100613.53;2070347;28;20241;-64
2023/02/25 03:10:35;;;;;;;40.50;27.50;;;;;;;4.08;100.00;100620.56;2065176;28;20164;-64
2023/02/25 03:11:35;;;;;;;48.47;20.80;;;;;;;3.72;100.00;100556.66;2071727;28;20184;-64
2023/02/25 03:12:37;;;;;;;30.90;23.07;;;;;;;4.09;100.00;100597.47;2064690;28;20572;-64
2023/02/25 03:13:38;;;;;;;35.00;25.90;;;;;;;4.20;100.00;100615.50;2072407;28;20249;-64
2023/02/25 03:14:39;;;;;;;43.63;25.27;;;;;;;4.14;100.00;100605.31;2066318;28;20194;-64
2023/02/25 03:15:40;;;;;;;33.70;23.87;;;;;;;4.23;100.00;100617.47;2072126;28;20717;-64
2023/02/25 03:16:50;;;;;;;38.30;23.42;;;;;;;4.25;100.00;100611.63;2068507;28;20196;-64
2023/02/25 03:17:56;;;;;;;31.65;22.13;;;;;;;4.23;100.00;100616.69;2066192;28;20671;-64
2023/02/25 03:19:14;;;;;;;33.10;23.88;;;;;;;4.20;100.00;100606.50;2068292;28;20183;-63
2023/02/25 03:20:19;;;;;;;30.83;23.77;;;;;;;4.18;100.00;100611.59;2066668;28;20201;-64
2023/02/25 03:21:31;;;;;;;32.50;23.33;;;;;;;3.63;100.00;100528.84;2070366;28;20203;-64
2023/02/25 03:22:35;;;;;;;29.90;20.80;;;;;;;4.16;100.00;100603.75;2069373;28;20186;-64
2023/02/25 03:23:40;;;;;;;27.20;21.77;;;;;;;4.15;100.00;100612.38;2069726;28;20222;-64
2023/02/25 03:24:59;;;;;;;26.05;20.33;;;;;;;4.13;100.00;100611.97;2073339;28;20217;-64
2023/02/25 03:26:21;;;;;;;28.65;21.75;;;;;;;4.09;100.00;100617.44;2079282;28;20699;-64
2023/02/25 03:27:33;;;;;;;76.03;21.00;;;;;;;4.05;100.00;100610.41;2074075;28;20185;-64
2023/02/25 03:28:33;;;;;;;94.50;32.85;;;;;;;3.99;100.00;100609.19;2073275;28;20207;-64
2023/02/25 03:29:34;;;;;;;156.73;34.50;;;;;;;3.91;100.00;100610.34;2073506;28;20190;-64
2023/02/25 03:30:43;;;;;;;84.93;33.37;;;;;;;3.87;100.00;100618.56;2073627;28;20201;-64
2023/02/25 03:31:55;;;;;;;50.72;31.02;;;;;;;3.81;100.00;100600.94;2070591;28;20212;-64
2023/02/25 03:33:00;;;;;;;43.35;30.88;;;;;;;3.79;100.00;100605.25;2070984;28;20644;-64
2023/02/25 03:34:34;;;;;;;42.30;29.95;;;;;;;3.82;100.00;100602.50;2073622;28;20310;-64
2023/02/25 03:35:38;;;;;;;39.60;28.27;;;;;;;3.78;100.00;100601.69;2072929;28;20248;-64
2023/02/25 03:36:43;;;;;;;49.83;29.77;;;;;;;3.33;100.00;100533.06;2064883;28;20194;-64
2023/02/25 03:37:49;;;;;;;37.20;28.25;;;;;;;3.30;100.00;100531.06;2071585;28;20260;-64
2023/02/25 03:38:53;;;;;;;40.95;28.67;;;;;;;3.69;100.00;100593.06;2073265;28;20181;-64
2023/02/25 03:39:57;;;;;;;40.55;29.75;;;;;;;3.64;100.00;100589.91;2066654;28;20194;-64
2023/02/25 03:41:02;;;;;;;87.80;29.98;;;;;;;2.51;100.00;100427.09;2071618;28;20643;-64
2023/02/25 03:42:04;;;;;;;75.43;27.80;;;;;;;3.25;100.00;100578.00;2067595;28;20202;-64
2023/02/25 03:43:11;;;;;;;39.08;26.77;;;;;;;3.42;100.00;100588.25;2070249;28;20190;-64
2023/02/25 03:44:16;;;;;;;34.33;25.80;;;;;;;3.39;100.00;100589.03;2068892;28;20304;-64
2023/02/25 03:45:20;;;;;;;32.53;24.98;;;;;;;3.33;100.00;100583.13;2070000;28;20174;-64
2023/02/25 03:46:21;;;;;;;26.50;22.50;;;;;;;3.32;100.00;100587.03;2073049;28;20197;-64
2023/02/25 03:47:25;;;;;;;33.35;20.92;;;;;;;3.44;100.00;100585.91;2073358;28;20726;-64
2023/02/25 03:48:28;;;;;;;56.25;22.10;;;;;;;3.51;100.00;100586.75;2072738;28;20235;-64
2023/02/25 03:49:43;;;;;;;31.75;20.75;;;;;;;2.87;100.00;100486.28;2073257;28;20272;-64
2023/02/25 03:50:51;;;;;;;27.90;22.42;;;;;;;3.61;100.00;100593.41;2073451;28;20684;-64
2023/02/25 03:51:55;;;;;;;32.38;22.85;;;;;;;3.64;100.00;100600.88;2067335;28;20181;-64
2023/02/25 03:52:56;;;;;;;29.48;22.58;;;;;;;2.37;100.00;100388.72;2071818;28;20271;-64
2023/02/25 03:53:57;;;;;;;30.83;22.95;;;;;;;3.71;100.00;100593.47;2065297;28;20229;-64
2023/02/25 03:54:58;;;;;;;42.67;25.57;;;;;;;3.09;100.00;100496.16;2073488;28;20660;-64
2023/02/25 03:56:04;;;;;;;51.00;31.67;;;;;;;3.59;100.00;100591.06;2065977;28;20645;-64
2023/02/25 03:57:04;;;;;;;55.47;34.55;;;;;;;2.69;100.00;100446.34;2072137;28;20195;-64
2023/02/25 03:58:06;;;;;;;69.07;35.27;;;;;;;3.61;100.00;100596.16;2066346;28;20360;-64
2023/02/25 03:59:07;;;;;;;66.40;37.45;;;;;;;3.43;100.00;100567.91;2069780;28;20287;-64
2023/02/25 04:00:16;;;;;;;81.33;39.53;;;;;;;3.15;100.00;100515.75;2069520;28;20356;-64
2023/02/25 04:01:29;;;;;;;80.95;41.58;;;;;;;3.68;100.00;100585.22;2069003;28;20235;-64
2023/02/25 04:02:32;;;;;;;76.85;39.75;;;;;;;3.70;100.00;100575.44;2068944;28;20217;-64
2023/02/25 04:03:32;;;;;;;71.28;38.72;;;;;;;3.79;100.00;100586.06;2071094;28;20184;-64
2023/02/25 04:04:33;;;;;;;83.17;39.57;;;;;;;3.43;100.00;100515.84;2073246;28;20192;-64
2023/02/25 04:05:35;;;;;;;76.73;37.13;;;;;;;3.78;100.00;100565.28;2072976;28;20198;-64
2023/02/25 04:06:35;;;;;;;67.50;35.38;;;;;;;3.91;100.00;100580.97;2073245;28;20263;-64
2023/02/25 04:07:36;;;;;;;56.40;31.83;;;;;;;3.93;100.00;100575.09;2072277;28;20190;-64
2023/02/25 04:08:37;;;;;;;60.27;33.47;;;;;;;3.94;100.00;100573.91;2072895;28;20252;-64
2023/02/25 04:09:38;;;;;;;83.77;36.57;;;;;;;3.99;100.00;100571.59;2073218;28;20190;-64
2023/02/25 04:10:42;;;;;;;116.53;39.50;;;;;;;3.96;100.00;100569.63;2073057;28;20269;-64
2023/02/25 04:11:43;;;;;;;91.75;37.95;;;;;;;4.01;100.00;100571.97;2073173;28;20603;-64
2023/02/25 04:12:43;;;;;;;161.87;38.37;;;;;;;3.95;100.00;100568.06;2073233;28;20225;-64
2023/02/25 04:13:44;;;;;;;105.37;37.43;;;;;;;3.21;100.00;100437.53;2070673;28;20185;-64
2023/02/25 04:14:44;;;;;;;138.03;36.77;;;;;;;4.03;100.00;100566.91;2066370;28;20179;-63
2023/02/25 04:15:46;;;;;;;112.00;37.50;;;;;;;4.04;100.00;100565.72;2072752;28;20192;-63
2023/02/25 04:16:46;;;;;;;112.10;35.78;;;;;;;4.07;100.00;100570.44;2073323;28;20196;-63
2023/02/25 04:17:46;;;;;;;131.50;36.73;;;;;;;4.06;100.00;100565.34;2071845;28;20206;-64
2023/02/25 04:18:47;;;;;;;162.27;39.30;;;;;;;4.12;100.00;100569.25;2073288;28;20393;-64
2023/02/25 04:19:47;;;;;;;100.10;37.57;;;;;;;4.15;100.00;100560.28;2073120;28;20197;-64
2023/02/25 04:20:48;;;;;;;90.30;37.07;;;;;;;4.15;100.00;100552.81;2073276;28;20195;-64
2023/02/25 04:21:48;;;;;;;96.03;37.40;;;;;;;4.11;100.00;100548.50;2072829;28;20269;-64
2023/02/25 04:22:49;;;;;;;73.93;35.20;;;;;;;4.17;100.00;100553.22;2071370;28;20182;-64
2023/02/25 04:23:49;;;;;;;83.90;37.13;;;;;;;4.16;100.00;100551.63;2072069;28;20291;-64
2023/02/25 04:24:50;;;;;;;75.40;35.67;;;;;;;4.18;100.00;100545.75;2073415;28;20177;-64
2023/02/25 04:25:50;;;;;;;88.23;38.00;;;;;;;3.46;100.00;100428.22;2072764;28;20252;-64
2023/02/25 04:26:57;;;;;;;88.47;37.87;;;;;;;4.27;100.00;100540.69;2073262;28;20197;-64
2023/02/25 04:27:57;;;;;;;128.15;40.78;;;;;;;4.35;100.00;100539.47;2065646;28;20198;-64
2023/02/25 04:28:57;;;;;;;76.30;38.50;;;;;;;4.18;100.00;100510.09;2070120;28;20265;-64
2023/02/25 04:29:58;;;;;;;85.47;38.87;;;;;;;4.26;100.00;100517.16;2069016;28;20701;-64
2023/02/25 04:30:59;;;;;;;71.90;38.63;;;;;;;4.34;100.00;100521.47;2067894;28;20250;-64
2023/02/25 04:31:59;;;;;;;78.43;40.27;;;;;;;4.46;100.00;100534.81;2071251;28;20220;-64
2023/02/25 04:33:00;;;;;;;81.97;39.47;;;;;;;4.49;100.00;100534.00;2065528;28;20179;-64
2023/02/25 04:34:00;;;;;;;75.60;40.13;;;;;;;4.17;100.00;100475.63;2073140;28;20186;-64
2023/02/25 04:35:02;;;;;;;86.60;40.63;;;;;;;4.62;100.00;100538.69;2065061;28;20575;-64
2023/02/25 04:36:02;;;;;;;76.00;41.88;;;;;;;4.44;100.00;100495.97;2071017;28;20670;-64
2023/02/25 04:37:03;;;;;;;142.23;44.20;;;;;;;4.66;100.00;100523.00;2069611;28;20574;-64
2023/02/25 04:38:04;;;;;;;85.57;42.13;;;;;;;4.22;100.00;100454.09;2071847;28;20229;-64
2023/02/25 04:39:04;;;;;;;79.20;41.60;;;;;;;4.73;100.00;100539.44;2072831;28;20185;-64
2023/02/25 04:40:15;;;;;;;104.07;41.37;;;;;;;4.77;100.00;100528.50;2073083;28;20261;-64
2023/02/25 04:42:35;;;;;;;76.43;40.72;;;;;;;4.86;100.00;100537.88;2073079;28;20190;-64
2023/02/25 04:43:35;;;;;;;99.87;42.70;;;;;;;4.86;100.00;100550.81;2070207;28;20193;-64
2023/02/25 04:44:36;;;;;;;80.33;42.47;;;;;;;4.87;100.00;100553.16;2065757;28;20636;-64
2023/02/25 04:45:36;;;;;;;67.07;39.87;;;;;;;4.44;100.00;100490.50;2072070;28;20175;-64
2023/02/25 04:46:41;;;;;;;67.77;38.93;;;;;;;4.97;100.00;100559.81;2072295;28;20196;-64
2023/02/25 04:47:41;;;;;;;70.13;38.83;;;;;;;5.04;100.00;100557.06;2071147;28;20200;-64
2023/02/25 04:48:42;;;;;;;58.03;35.87;;;;;;;5.07;100.00;100553.53;2072980;28;20189;-64
2023/02/25 04:49:45;;;;;;;64.40;36.93;;;;;;;5.09;100.00;100551.94;2068077;28;20198;-64
2023/02/25 04:50:45;;;;;;;59.53;36.75;;;;;;;5.11;100.00;100555.06;2070135;28;20201;-64
2023/02/25 04:51:48;;;;;;;64.40;36.77;;;;;;;5.13;100.00;100547.19;2068824;28;20188;-64
2023/02/25 04:52:48;;;;;;;67.97;37.40;;;;;;;5.08;100.00;100544.88;2067876;28;20198;-64
2023/02/25 04:53:49;;;;;;;68.33;36.57;;;;;;;5.14;100.00;100548.75;2072766;28;20203;-64
2023/02/25 04:54:49;;;;;;;67.33;37.40;;;;;;;5.11;100.00;100543.28;2073001;28;20316;-64
2023/02/25 04:55:50;;;;;;;75.17;35.60;;;;;;;5.10;100.00;100544.47;2072666;28;20220;-64